Terminal Aerodrome Forecast
Issued by NWS

Home | Current Version | Previous Version | Text Only | Print | Product List | Glossary On
Versions: 1 2 3 4 5 6 7 8 9 10 11 12 13 14 15 16 17 18 19 20 21 22 23 24 25 26 27 28 29 30 31 32
000
FTUS43 KLSX 260520
TAFUIN
TAF
KUIN 260520Z 2606/2706 36012KT P6SM OVC015
     FM261300 01012KT P6SM VCSH OVC014
     FM261700 01011KT 6SM -RASN BR OVC020
     FM270100 01008KT P6SM OVC019=

USA.gov is the U.S. government's official web portal to all federal, state and local government web resources and services.